createdAt,value
2022-12-25T00:00:52.114Z,11.20
2022-12-25T00:03:20.365Z,11.10
2022-12-25T00:05:48.435Z,11.10
2022-12-25T00:08:16.359Z,11.10
2022-12-25T00:10:45.865Z,11.20
2022-12-25T00:13:13.848Z,11.20
2022-12-25T00:15:42.167Z,11.20
2022-12-25T00:18:10.104Z,11.20
2022-12-25T00:20:37.994Z,11.20
2022-12-25T00:23:05.948Z,11.10
2022-12-25T00:25:33.892Z,11.10
2022-12-25T00:28:03.152Z,11.00
2022-12-25T00:30:31.061Z,11.10
2022-12-25T00:32:58.989Z,11.10
2022-12-25T00:35:26.923Z,11.10
2022-12-25T00:37:54.871Z,11.20
2022-12-25T00:40:22.762Z,11.20
2022-12-25T00:42:50.764Z,11.10
2022-12-25T00:45:20.243Z,11.20
2022-12-25T00:47:48.272Z,11.20
2022-12-25T00:50:16.218Z,11.20
2022-12-25T00:52:44.130Z,11.20
2022-12-25T00:55:12.031Z,11.20
2022-12-25T00:57:39.941Z,11.30
2022-12-25T01:00:09.126Z,11.30
2022-12-25T01:02:38.573Z,11.30
2022-12-25T01:05:08.005Z,11.30
2022-12-25T01:07:35.922Z,11.30
2022-12-25T01:10:24.121Z,11.30
2022-12-25T01:12:52.695Z,11.30
2022-12-25T01:15:20.867Z,11.30
2022-12-25T01:17:50.116Z,11.30
2022-12-25T01:20:18.885Z,11.20
2022-12-25T01:22:47.156Z,11.00
2022-12-25T01:25:15.096Z,11.00
2022-12-25T01:27:43.584Z,11.00
2022-12-25T01:30:12.593Z,11.00
2022-12-25T01:32:40.507Z,11.10
2022-12-25T01:35:10.312Z,11.10
2022-12-25T01:37:38.380Z,11.10
2022-12-25T01:40:07.628Z,11.10
2022-12-25T01:42:35.576Z,11.10
2022-12-25T01:45:35.239Z,11.10
2022-12-25T01:48:07.148Z,11.00
2022-12-25T01:50:38.927Z,11.10
2022-12-25T01:53:07.675Z,11.00
2022-12-25T01:55:36.917Z,11.10
2022-12-25T01:58:05.506Z,11.60
2022-12-25T02:00:33.418Z,11.10
2022-12-25T02:03:01.484Z,11.10
2022-12-25T02:05:32.132Z,11.20
2022-12-25T02:08:08.882Z,11.10
2022-12-25T02:10:38.761Z,11.10
2022-12-25T02:13:07.357Z,11.10
2022-12-25T02:15:45.620Z,11.10
2022-12-25T02:18:20.412Z,11.10
2022-12-25T02:21:08.192Z,11.10
2022-12-25T02:24:19.702Z,11.20
2022-12-25T02:27:06.210Z,11.20
2022-12-25T02:29:43.578Z,11.30
2022-12-25T02:32:18.324Z,11.30
2022-12-25T02:34:51.381Z,11.40
2022-12-25T02:37:28.249Z,11.40
2022-12-25T02:40:00.771Z,11.40
2022-12-25T02:42:52.858Z,11.40
2022-12-25T02:45:46.833Z,11.30
2022-12-25T02:48:33.465Z,11.30
2022-12-25T02:51:23.571Z,11.20
2022-12-25T02:54:12.281Z,11.20
2022-12-25T02:56:58.944Z,11.20
2022-12-25T02:59:45.486Z,11.30
2022-12-25T03:02:33.885Z,11.20
2022-12-25T03:05:22.230Z,11.20
2022-12-25T03:07:50.852Z,11.20
2022-12-25T03:10:38.479Z,11.20
2022-12-25T03:13:12.723Z,11.20
2022-12-25T03:15:58.603Z,11.20
2022-12-25T03:18:31.061Z,11.20
2022-12-25T03:21:17.789Z,11.20
2022-12-25T03:24:08.491Z,11.20
2022-12-25T03:26:53.859Z,11.20
2022-12-25T03:29:35.733Z,11.10
2022-12-25T03:32:11.534Z,11.00
2022-12-25T03:35:04.643Z,11.10
2022-12-25T03:38:11.236Z,11.60
2022-12-25T03:41:05.957Z,11.00
2022-12-25T03:44:00.324Z,11.00
2022-12-25T03:46:50.972Z,11.10
2022-12-25T03:49:42.676Z,11.00
2022-12-25T03:52:33.367Z,11.00
2022-12-25T03:55:23.189Z,11.00
2022-12-25T03:58:08.842Z,11.10
2022-12-25T04:00:54.157Z,11.00
2022-12-25T04:03:39.768Z,11.00
2022-12-25T04:06:25.679Z,11.00
2022-12-25T04:09:12.814Z,11.00
2022-12-25T04:12:02.422Z,11.00
2022-12-25T04:14:48.791Z,11.00
2022-12-25T04:17:34.279Z,11.00
2022-12-25T04:20:19.793Z,11.00
2022-12-25T04:23:05.332Z,11.10
2022-12-25T04:25:52.407Z,11.10
2022-12-25T04:28:34.638Z,11.60
2022-12-25T04:31:20.538Z,11.00
2022-12-25T04:34:05.920Z,11.10
2022-12-25T04:36:33.955Z,10.90
2022-12-25T04:39:01.875Z,11.00
2022-12-25T04:41:31.134Z,11.10
2022-12-25T04:43:59.045Z,11.00
2022-12-25T04:46:27.058Z,11.00
2022-12-25T04:48:55.166Z,10.90
2022-12-25T04:51:25.078Z,11.00
2022-12-25T04:53:54.633Z,11.00
2022-12-25T04:56:23.409Z,11.00
2022-12-25T04:58:52.703Z,11.10
2022-12-25T05:01:20.644Z,11.00
2022-12-25T05:03:48.683Z,10.80
2022-12-25T05:06:16.648Z,10.80
2022-12-25T05:08:44.617Z,10.80
2022-12-25T05:11:15.175Z,11.20
2022-12-25T05:13:43.441Z,10.70
2022-12-25T05:16:14.874Z,10.80
2022-12-25T05:18:42.852Z,10.90
2022-12-25T05:21:11.635Z,10.80
2022-12-25T05:23:48.239Z,10.80
2022-12-25T05:26:17.068Z,10.80
2022-12-25T05:28:45.398Z,10.90
2022-12-25T05:31:14.807Z,10.80
2022-12-25T05:33:42.747Z,10.90
2022-12-25T05:36:12.478Z,10.90
2022-12-25T05:38:40.826Z,10.90
2022-12-25T05:41:08.808Z,10.90
2022-12-25T05:43:36.785Z,10.90
2022-12-25T05:46:09.057Z,11.00
2022-12-25T05:48:39.032Z,10.90
2022-12-25T05:51:07.914Z,11.00
2022-12-25T05:53:36.801Z,11.00
2022-12-25T05:56:07.640Z,11.10
2022-12-25T05:58:37.743Z,11.10
2022-12-25T06:01:11.185Z,11.10
2022-12-25T06:03:40.600Z,11.10
2022-12-25T06:06:08.830Z,11.10
2022-12-25T06:08:37.306Z,11.10
2022-12-25T06:11:06.260Z,11.10
2022-12-25T06:13:35.098Z,11.10
2022-12-25T06:16:05.299Z,11.00
2022-12-25T06:18:35.387Z,11.00
2022-12-25T06:21:07.667Z,10.90
2022-12-25T06:23:35.790Z,10.70
2022-12-25T06:26:05.268Z,10.70
2022-12-25T06:28:33.253Z,10.70
2022-12-25T06:31:06.211Z,10.60
2022-12-25T06:33:34.175Z,10.50
2022-12-25T06:36:07.678Z,10.40
2022-12-25T06:38:35.953Z,10.40
2022-12-25T06:41:08.315Z,10.40
2022-12-25T06:43:36.304Z,10.40
2022-12-25T06:46:07.001Z,10.40
2022-12-25T06:48:35.708Z,10.40
2022-12-25T06:51:04.657Z,10.30
2022-12-25T06:53:39.726Z,10.40
2022-12-25T06:56:10.591Z,10.40
2022-12-25T06:58:38.553Z,10.30
2022-12-25T07:01:15.639Z,10.30
2022-12-25T07:03:45.847Z,10.40
2022-12-25T07:06:13.896Z,10.50
2022-12-25T07:08:43.244Z,10.50
2022-12-25T07:11:11.296Z,10.50
2022-12-25T07:13:39.307Z,10.50
2022-12-25T07:16:08.583Z,10.50
2022-12-25T07:18:36.738Z,10.50
2022-12-25T07:21:09.492Z,10.60
2022-12-25T07:23:37.453Z,10.60
2022-12-25T07:26:07.002Z,10.60
2022-12-25T07:28:35.344Z,10.60
2022-12-25T07:31:04.101Z,10.60
2022-12-25T07:33:32.174Z,10.60
2022-12-25T07:36:00.280Z,11.10
2022-12-25T07:38:28.391Z,10.60
2022-12-25T07:40:56.352Z,10.70
2022-12-25T07:43:26.206Z,10.70
2022-12-25T07:45:56.799Z,10.60
2022-12-25T07:48:24.872Z,10.60
2022-12-25T07:50:57.667Z,10.60
2022-12-25T07:53:25.630Z,10.70
2022-12-25T07:56:01.423Z,10.60
2022-12-25T07:58:31.469Z,10.70
2022-12-25T08:01:05.322Z,10.70
2022-12-25T08:03:34.336Z,10.70
2022-12-25T08:06:02.679Z,10.70
2022-12-25T08:08:30.903Z,10.60
2022-12-25T08:10:58.842Z,10.70
2022-12-25T08:13:27.091Z,10.80
2022-12-25T08:15:59.552Z,10.80
2022-12-25T08:18:29.960Z,10.80
2022-12-25T08:21:02.582Z,10.80
2022-12-25T08:23:30.550Z,10.80
2022-12-25T08:26:04.977Z,10.70
2022-12-25T08:28:34.033Z,10.80
2022-12-25T08:31:08.419Z,10.80
2022-12-25T08:33:37.334Z,10.80
2022-12-25T08:36:06.617Z,10.90
2022-12-25T08:38:34.626Z,10.80
2022-12-25T08:41:02.936Z,10.80
2022-12-25T08:43:31.339Z,10.80
2022-12-25T08:45:59.304Z,10.80
2022-12-25T08:48:28.872Z,10.80
2022-12-25T08:50:58.667Z,10.80
2022-12-25T08:53:26.780Z,10.80
2022-12-25T08:55:59.525Z,10.80
2022-12-25T08:58:28.169Z,10.80
2022-12-25T09:01:06.047Z,10.80
2022-12-25T09:03:35.656Z,10.90
2022-12-25T09:06:04.940Z,10.90
2022-12-25T09:08:33.367Z,10.90
2022-12-25T09:11:03.416Z,10.90
2022-12-25T09:13:31.674Z,10.90
2022-12-25T09:15:59.991Z,10.90
2022-12-25T09:18:27.966Z,10.90
2022-12-25T09:21:01.291Z,10.90
2022-12-25T09:23:29.697Z,10.90
2022-12-25T09:25:59.950Z,10.90
2022-12-25T09:28:27.923Z,10.90
2022-12-25T09:30:56.076Z,11.00
2022-12-25T09:33:24.380Z,10.90
2022-12-25T09:35:59.063Z,11.00
2022-12-25T09:38:29.720Z,10.90
2022-12-25T09:41:03.125Z,11.00
2022-12-25T09:43:42.518Z,10.90
2022-12-25T09:46:18.243Z,10.90
2022-12-25T09:48:52.306Z,10.90
2022-12-25T09:51:20.841Z,10.90
2022-12-25T09:53:56.962Z,10.90
2022-12-25T09:56:26.522Z,11.40
2022-12-25T09:58:56.517Z,10.90
2022-12-25T10:01:34.006Z,10.90
2022-12-25T10:04:29.951Z,10.90
2022-12-25T10:07:11.548Z,10.90
2022-12-25T10:09:53.475Z,11.00
2022-12-25T10:12:39.206Z,11.00
2022-12-25T10:15:29.166Z,11.00
2022-12-25T10:18:17.017Z,11.00
2022-12-25T10:20:52.684Z,10.90
2022-12-25T10:23:26.596Z,11.00
2022-12-25T10:25:55.971Z,11.00
2022-12-25T10:28:30.934Z,11.00
2022-12-25T10:31:03.127Z,11.00
2022-12-25T10:33:31.857Z,10.90
2022-12-25T10:36:00.252Z,11.00
2022-12-25T10:38:28.225Z,11.00
2022-12-25T10:41:07.259Z,11.00
2022-12-25T10:43:44.157Z,11.00
2022-12-25T10:46:14.680Z,11.00
2022-12-25T10:48:49.174Z,11.00
2022-12-25T10:51:28.696Z,11.10
2022-12-25T10:53:56.782Z,11.00
2022-12-25T10:56:26.301Z,11.00
2022-12-25T10:59:05.853Z,11.00
2022-12-25T11:01:34.346Z,11.00
2022-12-25T11:04:02.755Z,11.10
2022-12-25T11:06:32.833Z,11.10
2022-12-25T11:09:02.290Z,11.10
2022-12-25T11:11:31.951Z,11.60
2022-12-25T11:14:02.703Z,11.10
2022-12-25T11:16:33.699Z,11.00
2022-12-25T11:19:01.968Z,11.10
2022-12-25T11:21:31.806Z,11.10
2022-12-25T11:24:01.614Z,11.10
2022-12-25T11:26:32.902Z,11.10
2022-12-25T11:29:02.822Z,11.10
2022-12-25T11:31:37.597Z,11.10
2022-12-25T11:34:11.496Z,11.10
2022-12-25T11:36:45.550Z,11.10
2022-12-25T11:39:22.027Z,11.10
2022-12-25T11:41:54.171Z,10.90
2022-12-25T11:44:34.424Z,11.00
2022-12-25T11:47:08.491Z,11.00
2022-12-25T11:49:49.728Z,11.00
2022-12-25T11:52:21.011Z,11.00
2022-12-25T11:54:53.542Z,11.00
2022-12-25T11:57:24.455Z,11.10
2022-12-25T11:59:58.044Z,11.00
2022-12-25T12:02:36.527Z,11.20
2022-12-25T12:05:12.861Z,11.10
2022-12-25T12:07:53.512Z,11.10
2022-12-25T12:10:28.960Z,11.10
2022-12-25T12:13:12.873Z,11.20
2022-12-25T12:15:44.471Z,11.20
2022-12-25T12:18:24.188Z,11.20
2022-12-25T12:21:03.654Z,11.20
2022-12-25T12:23:34.443Z,11.20
2022-12-25T12:26:02.907Z,11.20
2022-12-25T12:28:43.715Z,11.20
2022-12-25T12:31:15.504Z,11.20
2022-12-25T12:33:50.181Z,11.20
2022-12-25T12:36:25.149Z,11.30
2022-12-25T12:39:02.690Z,11.20
2022-12-25T12:41:44.085Z,11.20
2022-12-25T12:44:13.962Z,11.20
2022-12-25T12:46:52.445Z,11.20
2022-12-25T12:49:23.716Z,11.20
2022-12-25T12:52:03.073Z,11.20
2022-12-25T12:54:31.066Z,11.30
2022-12-25T12:57:00.944Z,11.20
2022-12-25T12:59:39.212Z,11.20
2022-12-25T13:02:37.137Z,11.30
2022-12-25T13:05:08.013Z,11.20
2022-12-25T13:07:52.507Z,11.30
2022-12-25T13:10:28.735Z,11.30
2022-12-25T13:13:00.538Z,11.30
2022-12-25T13:15:33.827Z,11.30
2022-12-25T13:18:06.653Z,11.30
2022-12-25T13:20:46.528Z,11.30
2022-12-25T13:23:16.026Z,11.30
2022-12-25T13:25:44.008Z,11.90
2022-12-25T13:28:15.637Z,11.30
2022-12-25T13:30:45.296Z,11.30
2022-12-25T13:33:19.421Z,11.30
2022-12-25T13:35:48.256Z,11.30
2022-12-25T13:38:17.997Z,11.30
2022-12-25T13:41:06.187Z,11.30
2022-12-25T13:43:34.181Z,11.30
2022-12-25T13:46:03.684Z,11.30
2022-12-25T13:48:31.991Z,11.90
2022-12-25T13:51:01.797Z,11.30
2022-12-25T13:53:32.827Z,11.30
2022-12-25T13:56:00.948Z,11.40
2022-12-25T13:58:31.332Z,11.40
2022-12-25T14:01:01.443Z,11.30
2022-12-25T14:03:36.463Z,11.40
2022-12-25T14:06:06.251Z,11.40
2022-12-25T14:08:36.825Z,11.50
2022-12-25T14:11:07.153Z,11.50
2022-12-25T14:13:41.169Z,11.40
2022-12-25T14:16:10.201Z,11.40
2022-12-25T14:18:39.594Z,11.40
2022-12-25T14:21:12.000Z,12.00
2022-12-25T14:23:43.847Z,11.40
2022-12-25T14:26:17.162Z,11.50
2022-12-25T14:28:48.923Z,11.50
2022-12-25T14:31:17.751Z,11.50
2022-12-25T14:33:50.477Z,11.40
2022-12-25T14:36:21.688Z,11.40
2022-12-25T14:38:58.364Z,11.30
2022-12-25T14:41:37.846Z,11.40
2022-12-25T14:44:25.908Z,11.40
2022-12-25T14:47:05.245Z,11.40
2022-12-25T14:50:29.155Z,11.40
2022-12-25T14:53:20.421Z,11.40
2022-12-25T14:55:50.963Z,11.40
2022-12-25T14:58:22.371Z,11.40
2022-12-25T15:00:56.174Z,11.50
2022-12-25T15:03:27.797Z,11.60
2022-12-25T15:06:02.397Z,11.40
2022-12-25T15:13:35.068Z,11.40
2022-12-25T15:16:44.012Z,11.40
2022-12-25T15:19:24.899Z,11.40
2022-12-25T15:21:55.303Z,11.40
2022-12-25T15:33:03.692Z,11.30
2022-12-25T15:36:20.734Z,11.40
2022-12-25T15:38:50.055Z,11.40
2022-12-25T15:41:52.656Z,11.40
2022-12-25T15:44:21.447Z,11.30
2022-12-25T15:46:49.627Z,11.30
2022-12-25T15:49:18.130Z,11.30
2022-12-25T15:51:46.321Z,11.40
2022-12-25T15:54:15.741Z,11.40
2022-12-25T15:56:47.619Z,11.30
2022-12-25T15:59:17.901Z,11.30
2022-12-25T16:01:49.025Z,11.30
2022-12-25T16:04:17.141Z,11.40
2022-12-25T16:06:45.151Z,11.30
2022-12-25T16:09:15.830Z,11.40
2022-12-25T16:11:44.543Z,11.30
2022-12-25T16:14:12.676Z,11.40
2022-12-25T16:16:41.057Z,11.30
2022-12-25T16:19:09.408Z,11.40
2022-12-25T16:21:40.387Z,11.40
2022-12-25T16:24:10.398Z,11.30
2022-12-25T16:26:43.241Z,11.30
2022-12-25T16:29:17.116Z,11.40
2022-12-25T16:31:48.099Z,11.40
2022-12-25T16:34:18.200Z,11.40
2022-12-25T16:36:47.819Z,11.40
2022-12-25T16:39:17.820Z,11.30
2022-12-25T16:41:47.154Z,11.40
2022-12-25T16:44:15.205Z,11.40
2022-12-25T16:46:43.184Z,11.50
2022-12-25T16:49:11.589Z,11.40
2022-12-25T16:51:39.648Z,11.50
2022-12-25T16:54:07.634Z,11.40
2022-12-25T16:56:36.688Z,11.40
2022-12-25T16:59:06.052Z,11.40
2022-12-25T17:01:35.473Z,11.50
2022-12-25T17:04:03.681Z,11.40
2022-12-25T17:06:31.680Z,11.50
2022-12-25T17:09:02.444Z,11.40
2022-12-25T17:11:30.952Z,11.50
2022-12-25T17:14:02.049Z,11.40
2022-12-25T17:16:36.153Z,11.50
2022-12-25T17:19:08.116Z,11.40
2022-12-25T17:21:38.069Z,11.40
2022-12-25T17:24:08.358Z,11.50
2022-12-25T17:29:52.880Z,11.50
2022-12-25T17:32:23.595Z,11.50
2022-12-25T17:35:20.729Z,11.50
2022-12-25T17:37:54.151Z,11.50
2022-12-25T17:40:22.733Z,11.60
2022-12-25T17:42:52.857Z,11.50
2022-12-25T17:53:41.494Z,11.50
2022-12-25T17:56:10.326Z,11.50
2022-12-25T17:58:39.862Z,11.60
2022-12-25T18:01:09.699Z,11.60
2022-12-25T18:03:38.939Z,11.60
2022-12-25T18:06:29.175Z,11.60
2022-12-25T18:18:07.684Z,11.60
2022-12-25T18:37:09.304Z,11.50
2022-12-25T18:39:37.324Z,11.60
2022-12-25T18:42:22.844Z,11.60
2022-12-25T18:44:50.806Z,11.60
2022-12-25T18:47:18.904Z,11.60
2022-12-25T18:58:32.836Z,11.60
2022-12-25T19:01:34.448Z,11.60
2022-12-25T19:04:05.442Z,11.60
2022-12-25T19:06:34.177Z,11.60
2022-12-25T19:09:08.579Z,11.60
2022-12-25T19:11:42.010Z,11.60
2022-12-25T19:14:12.070Z,11.50
2022-12-25T19:16:42.318Z,11.50
2022-12-25T19:19:10.610Z,11.50
2022-12-25T19:21:38.870Z,11.50
2022-12-25T19:24:07.303Z,11.50
2022-12-25T19:26:35.948Z,11.50
2022-12-25T19:29:06.853Z,11.50
2022-12-25T19:31:35.091Z,11.50
2022-12-25T19:34:04.756Z,11.50
2022-12-25T19:36:32.811Z,11.50
2022-12-25T19:39:00.832Z,11.40
2022-12-25T19:41:29.060Z,11.40
2022-12-25T19:44:03.345Z,11.40
2022-12-25T19:46:34.217Z,11.50
2022-12-25T19:49:04.256Z,11.50
2022-12-25T19:51:36.659Z,11.40
2022-12-25T19:54:08.326Z,11.50
2022-12-25T19:56:36.581Z,11.40
2022-12-25T19:59:04.555Z,11.40
2022-12-25T20:01:33.423Z,11.40
2022-12-25T20:04:01.485Z,11.40
2022-12-25T20:06:31.333Z,11.40
2022-12-25T20:09:03.522Z,11.50
2022-12-25T20:11:33.188Z,11.40
2022-12-25T20:14:01.184Z,11.50
2022-12-25T20:16:29.357Z,11.40
2022-12-25T20:18:58.659Z,11.30
2022-12-25T20:21:27.637Z,11.50
2022-12-25T20:23:55.645Z,11.40
2022-12-25T20:26:30.053Z,11.40
2022-12-25T20:28:58.431Z,11.40
2022-12-25T20:31:28.364Z,11.40
2022-12-25T20:33:56.740Z,11.40
2022-12-25T20:36:38.095Z,11.40
2022-12-25T20:39:09.411Z,11.40
2022-12-25T20:42:06.799Z,11.40
2022-12-25T20:44:35.193Z,11.40
2022-12-25T20:47:03.723Z,11.50
2022-12-25T20:49:32.576Z,11.50
2022-12-25T21:00:40.031Z,11.40
2022-12-25T21:03:08.579Z,11.40
2022-12-25T21:05:37.006Z,11.50
2022-12-25T21:08:05.561Z,11.30
2022-12-25T21:10:33.469Z,11.40
2022-12-25T21:13:03.167Z,11.40
2022-12-25T21:15:31.224Z,11.40
2022-12-25T21:18:07.257Z,11.40
2022-12-25T21:21:42.266Z,11.40
2022-12-25T21:24:52.025Z,11.40
2022-12-25T21:27:20.021Z,11.40
2022-12-25T21:29:48.105Z,11.40
2022-12-25T21:32:33.809Z,11.40
2022-12-25T21:35:10.047Z,11.40
2022-12-25T21:37:38.011Z,11.40
2022-12-25T21:40:11.313Z,11.30
2022-12-25T21:42:44.695Z,11.40
2022-12-25T21:54:15.197Z,11.30
2022-12-25T21:56:47.308Z,11.30
2022-12-25T21:59:21.782Z,11.30
2022-12-25T22:01:51.881Z,11.30
2022-12-25T22:04:21.594Z,11.40
2022-12-25T22:07:12.868Z,11.30
2022-12-25T22:09:50.344Z,11.40
2022-12-25T22:12:50.672Z,11.40
2022-12-25T22:15:50.068Z,11.30
2022-12-25T22:18:45.933Z,11.40
2022-12-25T22:21:20.481Z,11.30
2022-12-25T22:23:49.323Z,11.90
2022-12-25T22:26:20.846Z,11.40
2022-12-25T22:28:51.286Z,11.30
2022-12-25T22:31:34.089Z,11.30
2022-12-25T22:34:06.979Z,11.20
2022-12-25T22:36:53.888Z,11.30
2022-12-25T22:39:26.559Z,11.30
2022-12-25T22:42:01.323Z,11.30
2022-12-25T22:44:34.117Z,11.30
2022-12-25T22:47:16.153Z,11.30
2022-12-25T22:49:44.373Z,11.30
2022-12-25T22:52:14.681Z,11.30
2022-12-25T22:54:43.039Z,11.30
2022-12-25T22:57:18.382Z,11.30
2022-12-25T22:59:57.275Z,11.30
2022-12-25T23:02:27.683Z,11.30
2022-12-25T23:05:03.057Z,11.30
2022-12-25T23:07:40.708Z,11.20
2022-12-25T23:10:11.331Z,11.20
2022-12-25T23:13:02.560Z,11.30
2022-12-25T23:15:31.655Z,11.30
2022-12-25T23:18:20.452Z,11.30
2022-12-25T23:21:06.620Z,11.30
2022-12-25T23:23:54.122Z,11.30
2022-12-25T23:26:24.767Z,11.30
2022-12-25T23:29:12.086Z,11.30
2022-12-25T23:31:44.506Z,11.30
2022-12-25T23:34:12.809Z,11.40
2022-12-25T23:36:59.531Z,11.40
2022-12-25T23:39:36.659Z,11.40
2022-12-25T23:42:13.071Z,11.40
2022-12-25T23:45:07.021Z,11.30
2022-12-25T23:47:35.183Z,11.30
2022-12-25T23:50:03.461Z,11.30
2022-12-25T23:52:34.010Z,11.20
2022-12-25T23:55:04.721Z,11.30
2022-12-25T23:57:33.018Z,11.30
